createdAt,value
2022-10-24T00:00:44.196Z,77.69
2022-10-24T00:03:10.427Z,77.67
2022-10-24T00:05:36.620Z,77.66
2022-10-24T00:08:02.730Z,77.71
2022-10-24T00:10:28.827Z,77.72
2022-10-24T00:12:54.941Z,77.75
2022-10-24T00:15:21.046Z,77.73
2022-10-24T00:17:47.151Z,77.74
2022-10-24T00:20:13.286Z,77.67
2022-10-24T00:22:39.386Z,77.73
2022-10-24T00:25:05.484Z,77.41
2022-10-24T00:27:32.099Z,77.38
2022-10-24T00:29:58.183Z,77.09
2022-10-24T00:32:24.272Z,77.11
2022-10-24T00:34:50.382Z,76.88
2022-10-24T00:37:17.074Z,76.73
2022-10-24T00:39:43.202Z,76.58
2022-10-24T00:42:09.328Z,76.50
2022-10-24T00:44:35.432Z,76.14
2022-10-24T00:47:01.759Z,75.93
2022-10-24T00:49:27.875Z,75.78
2022-10-24T00:51:53.953Z,75.66
2022-10-24T00:54:20.042Z,75.36
2022-10-24T00:56:46.264Z,75.28
2022-10-24T00:59:12.360Z,74.89
2022-10-24T01:01:38.755Z,74.48
2022-10-24T01:04:04.912Z,73.86
2022-10-24T01:06:30.998Z,73.49
2022-10-24T01:08:57.177Z,72.93
2022-10-24T01:11:23.289Z,72.60
2022-10-24T01:13:49.380Z,72.06
2022-10-24T01:16:15.634Z,71.87
2022-10-24T01:18:41.828Z,71.57
2022-10-24T01:21:08.211Z,71.27
2022-10-24T01:23:34.337Z,71.19
2022-10-24T01:26:00.928Z,71.16
2022-10-24T01:28:27.101Z,71.07
2022-10-24T01:30:53.194Z,71.16
2022-10-24T01:33:19.347Z,71.22
2022-10-24T01:35:45.439Z,71.26
2022-10-24T01:38:11.564Z,71.40
2022-10-24T01:40:37.667Z,71.44
2022-10-24T01:43:03.750Z,71.67
2022-10-24T01:45:29.848Z,71.62
2022-10-24T01:47:55.959Z,71.65
2022-10-24T01:50:22.055Z,71.59
2022-10-24T01:52:48.181Z,71.75
2022-10-24T01:55:14.358Z,71.78
2022-10-24T01:57:40.460Z,71.83
2022-10-24T02:00:06.558Z,71.94
2022-10-24T02:02:32.665Z,72.08
2022-10-24T02:04:58.755Z,72.33
2022-10-24T02:07:24.850Z,72.54
2022-10-24T02:09:50.963Z,72.69
2022-10-24T02:12:17.064Z,72.89
2022-10-24T02:14:43.152Z,73.02
2022-10-24T02:17:09.266Z,73.13
2022-10-24T02:19:35.362Z,73.25
2022-10-24T02:22:01.454Z,73.44
2022-10-24T02:24:27.573Z,73.37
2022-10-24T02:26:53.672Z,73.16
2022-10-24T02:29:19.757Z,73.05
2022-10-24T02:31:46.384Z,72.77
2022-10-24T02:36:43.489Z,72.18
2022-10-24T02:39:09.636Z,71.89
2022-10-24T02:41:35.720Z,71.51
2022-10-24T02:44:01.814Z,71.32
2022-10-24T02:46:27.935Z,71.25
2022-10-24T02:48:54.022Z,71.08
2022-10-24T02:51:20.120Z,70.99
2022-10-24T02:53:46.220Z,70.88
2022-10-24T02:56:12.313Z,70.70
2022-10-24T02:58:38.409Z,70.63
2022-10-24T03:01:04.598Z,70.53
2022-10-24T03:03:30.791Z,70.70
2022-10-24T03:05:56.890Z,70.63
2022-10-24T03:08:22.998Z,70.64
2022-10-24T03:10:49.078Z,70.66
2022-10-24T03:13:15.164Z,70.61
2022-10-24T03:15:41.323Z,70.66
2022-10-24T03:18:07.469Z,70.63
2022-10-24T03:20:33.548Z,70.69
2022-10-24T03:22:59.665Z,70.66
2022-10-24T03:25:25.746Z,70.79
2022-10-24T03:27:51.846Z,70.77
2022-10-24T03:30:18.024Z,70.84
2022-10-24T03:32:44.386Z,71.05
2022-10-24T03:35:13.325Z,70.97
2022-10-24T03:37:40.465Z,70.95
2022-10-24T03:40:06.555Z,71.06
2022-10-24T03:42:32.651Z,71.15
2022-10-24T03:44:58.760Z,71.08
2022-10-24T03:47:24.854Z,71.24
2022-10-24T03:49:50.953Z,71.28
2022-10-24T03:52:17.065Z,71.38
2022-10-24T03:54:43.156Z,71.51
2022-10-24T03:57:09.277Z,71.48
2022-10-24T03:59:35.395Z,71.53
2022-10-24T04:02:01.587Z,71.51
2022-10-24T04:04:27.762Z,71.50
2022-10-24T04:06:53.868Z,71.45
2022-10-24T04:09:19.958Z,71.55
2022-10-24T04:11:46.037Z,71.50
2022-10-24T04:14:12.136Z,71.53
2022-10-24T04:16:38.238Z,71.36
2022-10-24T04:19:04.352Z,71.38
2022-10-24T04:21:30.475Z,71.38
2022-10-24T04:23:56.585Z,71.14
2022-10-24T04:26:23.540Z,71.00
2022-10-24T04:28:49.650Z,71.09
2022-10-24T04:31:18.165Z,70.71
2022-10-24T04:33:47.127Z,70.81
2022-10-24T04:36:13.592Z,70.63
2022-10-24T04:38:39.677Z,70.38
2022-10-24T04:41:07.382Z,70.36
2022-10-24T04:43:36.067Z,70.12
2022-10-24T04:46:02.156Z,69.90
2022-10-24T04:48:28.249Z,69.73
2022-10-24T04:50:54.348Z,69.87
2022-10-24T04:53:20.449Z,69.69
2022-10-24T04:55:46.536Z,69.40
2022-10-24T04:58:12.666Z,69.45
2022-10-24T05:00:38.789Z,69.16
2022-10-24T05:03:04.878Z,69.13
2022-10-24T05:05:31.004Z,69.02
2022-10-24T05:07:57.099Z,68.71
2022-10-24T05:10:23.193Z,68.58
2022-10-24T05:12:49.396Z,68.56
2022-10-24T05:15:15.557Z,68.28
2022-10-24T05:17:41.657Z,68.22
2022-10-24T05:20:07.763Z,68.14
2022-10-24T05:22:33.868Z,68.14
2022-10-24T05:24:59.961Z,68.10
2022-10-24T05:27:26.566Z,67.92
2022-10-24T05:29:52.665Z,67.90
2022-10-24T05:32:18.755Z,67.73
2022-10-24T05:34:44.878Z,67.66
2022-10-24T05:37:11.064Z,67.75
2022-10-24T05:39:37.262Z,67.47
2022-10-24T05:42:03.659Z,67.58
2022-10-24T05:44:29.760Z,67.50
2022-10-24T05:46:55.861Z,67.39
2022-10-24T05:49:21.981Z,67.24
2022-10-24T05:51:48.071Z,67.15
2022-10-24T05:54:14.195Z,67.05
2022-10-24T05:56:40.359Z,67.05
2022-10-24T05:59:06.449Z,67.17
2022-10-24T06:01:32.634Z,67.17
2022-10-24T06:03:58.788Z,67.05
2022-10-24T06:06:24.894Z,67.27
2022-10-24T06:08:50.984Z,67.06
2022-10-24T06:11:17.128Z,67.36
2022-10-24T06:13:43.227Z,67.28
2022-10-24T06:16:09.332Z,67.25
2022-10-24T06:18:35.440Z,67.24
2022-10-24T06:21:01.525Z,67.39
2022-10-24T06:23:27.632Z,67.20
2022-10-24T06:25:53.756Z,67.37
2022-10-24T06:28:19.841Z,67.35
2022-10-24T06:30:45.935Z,67.26
2022-10-24T06:33:12.042Z,67.29
2022-10-24T06:35:38.137Z,67.15
2022-10-24T06:38:04.231Z,67.21
2022-10-24T06:40:30.629Z,67.15
2022-10-24T06:42:56.734Z,67.07
2022-10-24T06:45:22.816Z,67.05
2022-10-24T06:47:51.907Z,67.07
2022-10-24T06:50:20.188Z,67.15
2022-10-24T06:52:46.285Z,67.13
2022-10-24T06:55:12.414Z,67.22
2022-10-24T06:57:38.500Z,67.24
2022-10-24T07:00:04.624Z,67.16
2022-10-24T07:02:30.839Z,67.18
2022-10-24T07:04:57.054Z,67.41
2022-10-24T07:07:23.206Z,67.43
2022-10-24T07:09:49.317Z,67.40
2022-10-24T07:12:15.453Z,67.50
2022-10-24T07:14:41.592Z,67.52
2022-10-24T07:17:07.724Z,67.34
2022-10-24T07:19:37.187Z,67.51
2022-10-24T07:22:03.599Z,67.53
2022-10-24T07:24:29.713Z,67.49
2022-10-24T07:26:55.817Z,67.43
2022-10-24T07:29:21.919Z,67.34
2022-10-24T07:31:48.522Z,67.43
2022-10-24T07:34:14.690Z,67.39
2022-10-24T07:36:43.830Z,67.19
2022-10-24T07:39:10.177Z,67.02
2022-10-24T07:41:36.269Z,66.94
2022-10-24T07:44:02.373Z,66.91
2022-10-24T07:46:28.501Z,66.75
2022-10-24T07:48:54.598Z,66.54
2022-10-24T07:51:20.696Z,66.54
2022-10-24T07:53:46.821Z,66.43
2022-10-24T07:56:12.917Z,66.38
2022-10-24T07:58:39.007Z,66.22
2022-10-24T08:01:05.138Z,66.13
2022-10-24T08:03:31.286Z,65.97
2022-10-24T08:05:57.363Z,65.89
2022-10-24T08:08:39.200Z,65.72
2022-10-24T08:11:05.612Z,65.67
2022-10-24T08:13:31.764Z,65.59
2022-10-24T08:15:57.863Z,65.52
2022-10-24T08:18:23.952Z,65.58
2022-10-24T08:20:50.045Z,65.59
2022-10-24T08:23:16.188Z,65.58
2022-10-24T08:25:42.284Z,65.63
2022-10-24T08:28:09.263Z,65.65
2022-10-24T08:30:35.464Z,65.46
2022-10-24T08:33:01.561Z,65.62
2022-10-24T08:35:27.706Z,65.37
2022-10-24T08:37:53.811Z,65.19
2022-10-24T08:40:19.903Z,65.10
2022-10-24T08:42:46.313Z,64.98
2022-10-24T08:45:12.560Z,64.67
2022-10-24T08:47:41.621Z,64.60
2022-10-24T08:50:08.067Z,64.32
2022-10-24T08:52:34.165Z,64.19
2022-10-24T08:55:04.667Z,63.86
2022-10-24T09:00:03.463Z,63.51
2022-10-24T09:02:29.665Z,63.31
2022-10-24T09:04:55.878Z,63.09
2022-10-24T09:07:22.117Z,63.10
2022-10-24T09:09:48.244Z,62.86
2022-10-24T09:12:14.357Z,62.72
2022-10-24T09:14:40.459Z,62.60
2022-10-24T09:17:06.580Z,62.61
2022-10-24T09:19:32.730Z,62.51
2022-10-24T09:21:58.817Z,62.55
2022-10-24T09:24:24.915Z,62.60
2022-10-24T09:26:51.025Z,62.56
2022-10-24T09:29:17.120Z,62.50
2022-10-24T09:31:43.208Z,62.40
2022-10-24T09:34:09.333Z,62.33
2022-10-24T09:36:35.478Z,62.18
2022-10-24T09:39:01.566Z,62.03
2022-10-24T09:41:27.724Z,62.06
2022-10-24T09:43:53.841Z,61.96
2022-10-24T09:46:19.930Z,62.00
2022-10-24T09:48:46.024Z,62.03
2022-10-24T09:51:12.131Z,62.00
2022-10-24T09:53:38.218Z,61.98
2022-10-24T09:56:04.328Z,61.97
2022-10-24T09:58:30.422Z,62.05
2022-10-24T10:00:56.902Z,62.18
2022-10-24T10:03:23.970Z,62.22
2022-10-24T10:05:50.452Z,62.35
2022-10-24T10:08:16.536Z,62.30
2022-10-24T10:10:42.647Z,62.27
2022-10-24T10:13:08.749Z,62.35
2022-10-24T10:15:34.841Z,62.46
2022-10-24T10:18:00.951Z,62.40
2022-10-24T10:20:27.041Z,62.41
2022-10-24T10:22:53.146Z,62.50
2022-10-24T10:25:19.271Z,62.41
2022-10-24T10:27:45.623Z,62.51
2022-10-24T10:30:11.877Z,62.57
2022-10-24T10:32:37.990Z,62.52
2022-10-24T10:35:04.096Z,62.63
2022-10-24T10:37:30.190Z,62.67
2022-10-24T10:39:56.284Z,62.73
2022-10-24T10:42:22.363Z,62.83
2022-10-24T10:44:48.469Z,62.74
2022-10-24T10:47:14.579Z,62.76
2022-10-24T10:49:40.680Z,62.66
2022-10-24T10:52:06.793Z,62.78
2022-10-24T10:54:32.913Z,62.93
2022-10-24T10:56:59.004Z,62.97
2022-10-24T10:59:28.535Z,62.91
2022-10-24T11:01:55.751Z,62.94
2022-10-24T11:04:21.987Z,63.13
2022-10-24T11:06:48.149Z,63.14
2022-10-24T11:09:14.269Z,63.20
2022-10-24T11:11:40.363Z,63.10
2022-10-24T11:14:06.445Z,63.02
2022-10-24T11:16:32.554Z,63.15
2022-10-24T11:18:58.665Z,63.13
2022-10-24T11:21:24.758Z,63.42
2022-10-24T11:23:50.869Z,63.55
2022-10-24T11:26:16.981Z,63.56
2022-10-24T11:28:43.083Z,63.56
2022-10-24T11:31:09.223Z,63.58
2022-10-24T11:33:35.314Z,63.67
2022-10-24T11:36:01.417Z,63.40
2022-10-24T11:38:27.512Z,63.55
2022-10-24T11:40:54.906Z,63.48
2022-10-24T11:43:24.629Z,63.43
2022-10-24T11:45:50.914Z,63.22
2022-10-24T11:48:17.028Z,63.19
2022-10-24T11:50:43.108Z,63.23
2022-10-24T11:53:09.215Z,63.10
2022-10-24T11:55:35.307Z,63.07
2022-10-24T11:58:01.400Z,62.85
2022-10-24T12:00:27.512Z,62.99
2022-10-24T12:02:53.636Z,62.92
2022-10-24T12:05:26.090Z,62.77
2022-10-24T12:07:52.220Z,62.78
2022-10-24T12:10:18.316Z,62.75
2022-10-24T12:12:44.421Z,62.77
2022-10-24T12:15:10.536Z,62.58
2022-10-24T12:17:36.628Z,62.64
2022-10-24T12:20:02.732Z,62.36
2022-10-24T12:22:28.859Z,62.37
2022-10-24T12:24:54.955Z,62.25
2022-10-24T12:27:21.046Z,62.18
2022-10-24T12:29:47.165Z,62.06
2022-10-24T12:32:13.259Z,61.87
2022-10-24T12:34:39.360Z,61.72
2022-10-24T12:37:05.470Z,61.59
2022-10-24T12:39:31.566Z,61.40
2022-10-24T12:41:57.670Z,61.12
2022-10-24T12:44:24.145Z,61.15
2022-10-24T12:46:50.232Z,61.00
2022-10-24T12:49:16.316Z,60.86
2022-10-24T12:51:42.452Z,60.69
2022-10-24T12:54:08.533Z,60.29
2022-10-24T12:56:34.618Z,60.10
2022-10-24T12:59:01.236Z,60.02
2022-10-24T13:01:27.571Z,59.78
2022-10-24T13:03:53.798Z,59.75
2022-10-24T13:06:20.440Z,59.81
2022-10-24T13:08:46.577Z,60.02
2022-10-24T13:11:12.664Z,60.30
2022-10-24T13:13:38.782Z,60.71
2022-10-24T13:16:04.892Z,61.38
2022-10-24T13:18:30.992Z,62.27
2022-10-24T13:20:57.100Z,63.23
2022-10-24T13:23:23.179Z,64.06
2022-10-24T13:25:49.275Z,64.42
2022-10-24T13:28:15.394Z,64.64
2022-10-24T13:30:43.737Z,64.89
2022-10-24T13:33:12.100Z,64.71
2022-10-24T13:35:38.226Z,64.87
2022-10-24T13:38:07.709Z,64.84
2022-10-24T13:40:33.980Z,64.83
2022-10-24T13:43:00.125Z,64.83
2022-10-24T13:45:26.222Z,64.85
2022-10-24T13:47:52.309Z,64.83
2022-10-24T13:50:18.431Z,64.88
2022-10-24T13:52:48.946Z,64.87
2022-10-24T13:55:15.525Z,64.90
2022-10-24T13:57:41.656Z,64.79
2022-10-24T14:00:07.755Z,64.79
2022-10-24T14:02:33.927Z,64.68
2022-10-24T14:05:00.068Z,64.81
2022-10-24T14:07:26.160Z,64.92
2022-10-24T14:09:52.299Z,65.33
2022-10-24T14:12:18.947Z,65.60
2022-10-24T14:14:45.074Z,65.66
2022-10-24T14:17:11.168Z,65.70
2022-10-24T14:19:38.766Z,65.81
2022-10-24T14:22:05.292Z,65.68
2022-10-24T14:24:31.386Z,65.71
2022-10-24T14:26:57.488Z,65.69
2022-10-24T14:29:23.578Z,65.67
2022-10-24T14:31:49.667Z,65.52
2022-10-24T14:34:15.780Z,65.46
2022-10-24T14:36:41.872Z,65.33
2022-10-24T14:39:07.967Z,65.34
2022-10-24T14:41:34.167Z,65.31
2022-10-24T14:44:00.276Z,65.33
2022-10-24T14:46:26.373Z,65.33
2022-10-24T14:48:52.783Z,65.35
2022-10-24T14:51:18.889Z,65.32
2022-10-24T14:53:45.032Z,65.25
2022-10-24T14:56:11.152Z,65.25
2022-10-24T14:58:37.255Z,65.20
2022-10-24T15:01:03.396Z,65.26
2022-10-24T15:03:29.536Z,65.31
2022-10-24T15:05:55.631Z,65.33
2022-10-24T15:08:23.008Z,65.60
2022-10-24T15:10:49.486Z,65.66
2022-10-24T15:13:15.594Z,65.94
2022-10-24T15:15:41.692Z,66.05
2022-10-24T15:18:07.805Z,66.07
2022-10-24T15:20:33.928Z,66.22
2022-10-24T15:23:00.055Z,66.08
2022-10-24T15:25:26.157Z,66.10
2022-10-24T15:27:52.264Z,65.89
2022-10-24T15:30:18.411Z,66.08
2022-10-24T15:32:44.547Z,66.25
2022-10-24T15:35:10.655Z,66.35
2022-10-24T15:37:36.760Z,66.52
2022-10-24T15:40:02.882Z,66.71
2022-10-24T15:42:28.979Z,66.67
2022-10-24T15:44:55.053Z,66.78
2022-10-24T15:47:21.173Z,66.91
2022-10-24T15:49:47.252Z,66.95
2022-10-24T15:52:13.358Z,67.18
2022-10-24T15:54:39.956Z,67.38
2022-10-24T15:57:06.048Z,67.46
2022-10-24T15:59:32.133Z,67.57
2022-10-24T16:01:58.265Z,67.74
2022-10-24T16:04:24.608Z,67.84
2022-10-24T16:06:50.782Z,67.91
2022-10-24T16:09:16.891Z,67.85
2022-10-24T16:11:42.980Z,68.01
2022-10-24T16:14:09.083Z,68.07
2022-10-24T16:16:35.249Z,68.05
2022-10-24T16:19:01.333Z,68.06
2022-10-24T16:21:27.453Z,68.14
2022-10-24T16:23:53.623Z,68.22
2022-10-24T16:26:19.733Z,68.46
2022-10-24T16:28:45.822Z,68.19
2022-10-24T16:31:11.920Z,68.32
2022-10-24T16:33:38.012Z,68.41
2022-10-24T16:36:04.092Z,68.58
2022-10-24T16:38:30.197Z,68.41
2022-10-24T16:40:56.285Z,68.58
2022-10-24T16:43:22.488Z,68.49
2022-10-24T16:45:50.950Z,68.61
2022-10-24T16:48:17.045Z,68.52
2022-10-24T16:50:43.139Z,68.62
2022-10-24T16:53:09.266Z,68.72
2022-10-24T16:55:35.354Z,68.72
2022-10-24T16:58:01.449Z,68.93
2022-10-24T17:00:27.573Z,69.01
2022-10-24T17:02:53.739Z,68.76
2022-10-24T17:05:19.827Z,68.99
2022-10-24T17:07:46.127Z,69.01
2022-10-24T17:10:12.342Z,69.12
2022-10-24T17:12:38.454Z,69.19
2022-10-24T17:15:04.591Z,69.27
2022-10-24T17:17:30.709Z,69.37
2022-10-24T17:19:56.919Z,69.45
2022-10-24T17:22:23.118Z,69.96
2022-10-24T17:24:49.212Z,70.35
2022-10-24T17:27:15.297Z,70.76
2022-10-24T17:29:41.435Z,71.21
2022-10-24T17:32:07.534Z,71.40
2022-10-24T17:34:33.631Z,71.59
2022-10-24T17:36:59.740Z,71.74
2022-10-24T17:39:25.907Z,72.10
2022-10-24T17:41:52.107Z,71.97
2022-10-24T17:44:18.241Z,71.97
2022-10-24T17:46:44.334Z,72.02
2022-10-24T17:49:10.465Z,72.13
2022-10-24T17:51:36.606Z,72.06
2022-10-24T17:54:02.712Z,72.23
2022-10-24T17:56:28.809Z,72.13
2022-10-24T17:58:54.934Z,72.14
2022-10-24T18:01:21.099Z,72.06
2022-10-24T18:03:47.284Z,72.07
2022-10-24T18:06:13.425Z,72.00
2022-10-24T18:08:39.524Z,71.87
2022-10-24T18:11:05.638Z,71.83
2022-10-24T18:13:31.815Z,71.82
2022-10-24T18:15:57.910Z,71.81
2022-10-24T18:18:24.011Z,71.81
2022-10-24T18:20:50.144Z,71.86
2022-10-24T18:23:16.685Z,71.93
2022-10-24T18:25:42.850Z,72.07
2022-10-24T18:28:09.226Z,72.17
2022-10-24T18:30:35.382Z,72.23
2022-10-24T18:33:01.604Z,72.42
2022-10-24T18:35:27.700Z,72.95
2022-10-24T18:37:53.796Z,75.06
2022-10-24T18:40:20.000Z,77.31
2022-10-24T18:42:46.398Z,79.73
2022-10-24T18:45:12.850Z,81.86
2022-10-24T18:47:39.219Z,83.69
2022-10-24T18:50:05.348Z,85.24
2022-10-24T18:52:31.432Z,86.44
2022-10-24T18:54:57.664Z,87.44
2022-10-24T18:57:23.784Z,88.34
2022-10-24T18:59:49.883Z,88.84
2022-10-24T19:02:16.060Z,89.49
2022-10-24T19:04:42.220Z,89.99
2022-10-24T19:07:08.317Z,90.47
2022-10-24T19:09:34.400Z,90.75
2022-10-24T19:12:00.528Z,91.19
2022-10-24T19:14:26.614Z,91.39
2022-10-24T19:16:52.696Z,91.77
2022-10-24T19:19:18.810Z,91.99
2022-10-24T19:21:46.479Z,92.09
2022-10-24T19:24:15.163Z,92.34
2022-10-24T19:26:41.577Z,92.50
2022-10-24T19:29:07.661Z,92.65
2022-10-24T19:31:33.742Z,92.80
2022-10-24T19:33:59.862Z,92.97
2022-10-24T19:38:53.011Z,93.35
2022-10-24T19:41:19.198Z,93.66
2022-10-24T19:43:45.281Z,93.86
2022-10-24T19:46:20.126Z,93.92
2022-10-24T19:48:46.557Z,94.15
2022-10-24T19:51:12.642Z,94.23
2022-10-24T19:53:38.743Z,94.44
2022-10-24T19:56:04.850Z,94.64
2022-10-24T19:58:30.955Z,94.81
2022-10-24T20:00:57.082Z,94.86
2022-10-24T20:03:23.332Z,94.91
2022-10-24T20:05:49.421Z,95.06
2022-10-24T20:08:15.508Z,95.22
2022-10-24T20:10:41.612Z,95.24
2022-10-24T20:13:07.700Z,95.26
2022-10-24T20:15:33.799Z,95.36
2022-10-24T20:17:59.918Z,95.51
2022-10-24T20:20:26.011Z,95.52
2022-10-24T20:22:52.094Z,95.72
2022-10-24T20:25:18.232Z,95.91
2022-10-24T20:27:44.614Z,95.90
2022-10-24T20:30:10.912Z,96.04
2022-10-24T20:32:37.059Z,96.19
2022-10-24T20:35:03.157Z,96.29
2022-10-24T20:37:29.260Z,96.25
2022-10-24T20:39:55.380Z,96.39
2022-10-24T20:42:21.471Z,96.47
2022-10-24T20:44:47.586Z,96.71
2022-10-24T20:47:13.710Z,96.83
2022-10-24T20:49:39.800Z,96.90
2022-10-24T20:52:05.947Z,97.06
2022-10-24T20:54:32.081Z,97.16
2022-10-24T20:56:58.165Z,97.25
2022-10-24T20:59:24.260Z,97.29
2022-10-24T21:01:50.513Z,97.43
2022-10-24T21:04:19.936Z,97.54
2022-10-24T21:06:47.073Z,97.66
2022-10-24T21:09:13.178Z,97.62
2022-10-24T21:11:39.265Z,97.78
2022-10-24T21:14:05.354Z,97.85
2022-10-24T21:16:31.469Z,97.86
2022-10-24T21:18:57.547Z,98.09
2022-10-24T21:21:23.641Z,98.24
2022-10-24T21:23:49.809Z,98.38
2022-10-24T21:26:15.929Z,98.50
2022-10-24T21:28:42.020Z,98.62
2022-10-24T21:31:08.139Z,98.71
2022-10-24T21:33:34.337Z,98.59
2022-10-24T21:36:00.431Z,98.98
2022-10-24T21:38:26.532Z,99.06
2022-10-24T21:40:52.615Z,99.20
2022-10-24T21:43:18.718Z,99.18
2022-10-24T21:45:44.882Z,99.18
2022-10-24T21:48:10.984Z,99.28
2022-10-24T21:50:37.143Z,99.49
2022-10-24T21:53:03.322Z,99.38
2022-10-24T21:55:29.414Z,99.41
2022-10-24T21:57:55.497Z,99.58
2022-10-24T22:00:21.611Z,99.74
2022-10-24T22:02:47.984Z,99.72
2022-10-24T22:05:14.324Z,99.76
2022-10-24T22:07:40.436Z,99.91
2022-10-24T22:10:06.526Z,99.95
2022-10-24T22:12:32.611Z,100.00
2022-10-24T22:14:58.725Z,100.00
2022-10-24T22:17:24.813Z,100.00
2022-10-24T22:19:50.905Z,100.00
2022-10-24T22:22:17.040Z,100.00
2022-10-24T22:24:43.131Z,100.00
2022-10-24T22:27:09.224Z,100.00
2022-10-24T22:29:35.336Z,100.00
2022-10-24T22:32:01.448Z,100.00
2022-10-24T22:34:27.533Z,100.00
2022-10-24T22:36:54.121Z,100.00
2022-10-24T22:39:20.216Z,100.00
2022-10-24T22:41:46.310Z,100.00
2022-10-24T22:44:12.427Z,100.00
2022-10-24T22:46:38.526Z,100.00
2022-10-24T22:49:04.708Z,100.00
2022-10-24T22:51:30.851Z,100.00
2022-10-24T22:53:56.976Z,100.00
2022-10-24T22:56:23.096Z,100.00
2022-10-24T22:58:49.233Z,100.00
2022-10-24T23:01:15.426Z,100.00
2022-10-24T23:03:41.583Z,100.00
2022-10-24T23:06:07.705Z,100.00
2022-10-24T23:08:33.812Z,100.00
2022-10-24T23:10:59.897Z,100.00
2022-10-24T23:13:26.000Z,100.00
2022-10-24T23:15:52.082Z,100.00
2022-10-24T23:18:18.390Z,100.00
2022-10-24T23:20:45.005Z,100.00
2022-10-24T23:23:24.267Z,100.00
2022-10-24T23:25:54.670Z,100.00
2022-10-24T23:28:20.762Z,100.00
2022-10-24T23:30:46.866Z,100.00
2022-10-24T23:33:12.964Z,100.00
2022-10-24T23:35:39.054Z,100.00
2022-10-24T23:38:05.145Z,100.00
2022-10-24T23:40:31.600Z,100.00
2022-10-24T23:42:57.699Z,100.00
2022-10-24T23:45:23.815Z,100.00
2022-10-24T23:47:49.927Z,100.00
2022-10-24T23:50:16.016Z,100.00
2022-10-24T23:52:42.120Z,100.00
2022-10-24T23:55:08.302Z,100.00
2022-10-24T23:57:34.393Z,100.00
